METAR Data
IDs: Format: Raw Decoded Include TAF

Data at: 0248 UTC 24 Oct 2019

METAR for:KLRJ (Le Mars Muni, IA, US)
Text:KLRJ 240235Z AUTO 31009KT 10SM BKN039 OVC047 03/02 A3019 RMK AO2
Temperature: 3.0°C ( 37°F)
Dewpoint: 2.0°C ( 36°F) [RH = 93%]
Pressure (altimeter):30.19 inches Hg (1022.4 mb)
Winds:from the NW (310 degrees) at 10 MPH (9 knots; 4.6 m/s)
Visibility:10 or more sm (16+ km)
Ceiling:3900 feet AGL
Clouds: broken clouds at 3900 feet AGL, overcast cloud deck at 4700 feet AGL
QC Flag:automated observation with no human augmentation